createdAt,value
2023-11-17T00:01:33.423Z,98543.86
2023-11-17T00:04:26.065Z,98542.48
2023-11-17T00:07:11.936Z,98538.81
2023-11-17T00:10:04.908Z,98539.69
2023-11-17T00:12:57.521Z,98538.30
2023-11-17T00:15:51.125Z,98539.34
2023-11-17T00:18:43.760Z,98540.04
2023-11-17T00:21:36.793Z,98542.14
2023-11-17T00:24:28.950Z,98545.27
2023-11-17T00:27:07.161Z,98548.58
2023-11-17T00:29:59.734Z,98547.36
2023-11-17T00:32:52.872Z,98545.62
2023-11-17T00:35:47.393Z,98545.80
2023-11-17T00:38:39.414Z,98540.21
2023-11-17T00:41:32.197Z,98537.23
2023-11-17T00:44:26.370Z,98534.10
2023-11-17T00:47:19.047Z,98529.23
2023-11-17T00:50:13.809Z,98525.77
2023-11-17T00:53:08.017Z,98525.95
2023-11-17T00:56:13.694Z,98520.36
2023-11-17T00:58:59.401Z,98515.68
2023-11-17T01:01:52.831Z,98508.55
2023-11-17T01:04:48.570Z,98510.13
2023-11-17T01:07:41.354Z,98502.31
2023-11-17T01:10:35.489Z,98497.27
2023-11-17T01:13:32.247Z,98493.11
2023-11-17T01:16:25.456Z,98488.40
2023-11-17T01:19:20.082Z,98482.68
2023-11-17T01:22:15.160Z,98483.02
2023-11-17T01:25:09.918Z,98484.26
2023-11-17T01:28:08.568Z,98484.27
2023-11-17T01:31:02.861Z,98482.36
2023-11-17T01:33:50.680Z,98478.86
2023-11-17T01:36:45.666Z,98470.34
2023-11-17T01:39:40.170Z,98466.67
2023-11-17T01:42:38.367Z,98468.08
2023-11-17T01:45:31.654Z,98462.84
2023-11-17T01:48:25.594Z,98459.02
2023-11-17T01:51:23.481Z,98450.33
2023-11-17T01:54:07.309Z,98450.33
2023-11-17T01:57:01.059Z,98452.41
2023-11-17T01:59:48.917Z,98452.42
2023-11-17T02:02:46.073Z,98452.59
2023-11-17T02:05:39.876Z,98452.94
2023-11-17T02:08:42.354Z,98454.16
2023-11-17T02:11:43.277Z,98450.16
2023-11-17T02:14:43.541Z,98449.99
2023-11-17T02:17:38.671Z,98442.34
2023-11-17T02:20:31.567Z,98442.85
2023-11-17T02:23:26.250Z,98440.40
2023-11-17T02:26:26.956Z,98442.66
2023-11-17T02:29:30.520Z,98442.66
2023-11-17T02:32:18.086Z,98440.24
2023-11-17T02:35:12.491Z,98436.23
2023-11-17T02:38:06.599Z,98438.33
2023-11-17T02:41:04.499Z,98435.73
2023-11-17T02:43:58.853Z,98436.23
2023-11-17T02:47:13.013Z,98437.64
2023-11-17T02:50:11.698Z,98429.64
2023-11-17T02:53:19.135Z,98429.81
2023-11-17T02:56:15.139Z,98423.73
2023-11-17T02:59:10.098Z,98424.77
2023-11-17T03:02:03.578Z,98422.34
2023-11-17T03:04:56.958Z,98419.90
2023-11-17T03:07:50.212Z,98422.52
2023-11-17T03:10:43.362Z,98416.60
2023-11-17T03:13:36.914Z,98415.55
2023-11-17T03:16:30.732Z,98416.75
2023-11-17T03:19:25.332Z,98412.41
2023-11-17T03:22:15.070Z,98409.45
2023-11-17T03:24:59.180Z,98408.07
2023-11-17T03:27:52.677Z,98405.11
2023-11-17T03:30:49.608Z,98400.95
2023-11-17T03:33:45.056Z,98400.77
2023-11-17T03:36:39.743Z,98394.00
2023-11-17T03:39:33.969Z,98393.13
2023-11-17T03:42:29.752Z,98387.73
2023-11-17T03:45:22.787Z,98384.09
2023-11-17T03:48:09.481Z,98379.55
2023-11-17T03:51:02.240Z,98377.99
2023-11-17T03:53:49.892Z,98371.73
2023-11-17T03:56:46.148Z,98375.91
2023-11-17T03:59:32.651Z,98374.18
2023-11-17T04:02:26.094Z,98371.40
2023-11-17T04:05:05.464Z,98364.45
2023-11-17T04:07:58.883Z,98359.56
2023-11-17T04:10:51.865Z,98356.95
2023-11-17T04:13:45.640Z,98356.60
2023-11-17T04:16:38.572Z,98350.88
2023-11-17T04:19:31.390Z,98352.27
2023-11-17T04:22:20.060Z,98354.54
2023-11-17T04:25:14.225Z,98352.45
2023-11-17T04:27:59.599Z,98351.73
2023-11-17T04:30:52.711Z,98344.60
2023-11-17T04:33:45.512Z,98343.91
2023-11-17T04:36:38.845Z,98336.10
2023-11-17T04:39:32.346Z,98336.09
2023-11-17T04:42:29.069Z,98330.55
2023-11-17T04:45:26.868Z,98329.33
2023-11-17T04:48:10.431Z,98324.98
2023-11-17T04:51:03.633Z,98327.77
2023-11-17T04:53:48.988Z,98322.55
2023-11-17T04:56:40.610Z,98326.19
2023-11-17T04:59:33.386Z,98327.92
2023-11-17T05:02:27.062Z,98329.48
2023-11-17T05:05:22.143Z,98328.44
2023-11-17T05:08:17.810Z,98326.19
2023-11-17T05:10:57.361Z,98321.85
2023-11-17T05:14:10.368Z,98313.68
2023-11-17T05:17:00.592Z,98314.20
2023-11-17T05:19:57.883Z,98314.55
2023-11-17T05:22:53.552Z,98314.02
2023-11-17T05:25:46.748Z,98314.73
2023-11-17T05:28:40.848Z,98315.41
2023-11-17T05:31:32.620Z,98312.11
2023-11-17T05:34:16.993Z,98315.07
2023-11-17T05:37:09.670Z,98312.80
2023-11-17T05:39:53.131Z,98317.85
2023-11-17T05:42:48.302Z,98319.07
2023-11-17T05:45:41.452Z,98321.33
2023-11-17T05:48:34.389Z,98324.45
2023-11-17T05:51:29.321Z,98321.85
2023-11-17T05:54:22.218Z,98320.46
2023-11-17T05:57:06.715Z,98324.45
2023-11-17T05:59:55.491Z,98325.50
2023-11-17T06:02:38.071Z,98325.50
2023-11-17T06:05:31.084Z,98321.86
2023-11-17T06:08:03.833Z,98331.74
2023-11-17T06:10:56.587Z,98329.15
2023-11-17T06:13:42.967Z,98325.33
2023-11-17T06:16:36.293Z,98321.33
2023-11-17T06:19:23.645Z,98322.02
2023-11-17T06:22:17.467Z,98321.33
2023-11-17T06:25:11.692Z,98319.08
2023-11-17T06:27:51.342Z,98316.98
2023-11-17T06:30:46.054Z,98315.25
2023-11-17T06:33:28.053Z,98316.64
2023-11-17T06:36:05.177Z,98315.59
2023-11-17T06:38:37.948Z,98314.38
2023-11-17T06:41:15.494Z,98314.20
2023-11-17T06:43:55.737Z,98312.80
2023-11-17T06:46:37.475Z,98316.80
2023-11-17T06:49:30.058Z,98315.07
2023-11-17T06:52:11.331Z,98317.33
2023-11-17T06:54:53.336Z,98318.39
2023-11-17T06:57:48.118Z,98315.42
2023-11-17T07:00:30.396Z,98313.51
2023-11-17T07:03:03.283Z,98311.94
2023-11-17T07:05:50.272Z,98309.87
2023-11-17T07:08:22.945Z,98306.91
2023-11-17T07:10:58.519Z,98308.81
2023-11-17T07:13:53.688Z,98306.38
2023-11-17T07:16:45.122Z,98305.69
2023-11-17T07:19:19.800Z,98304.80
2023-11-17T07:22:02.768Z,98308.63
2023-11-17T07:24:55.912Z,98308.29
2023-11-17T07:27:38.640Z,98311.77
2023-11-17T07:30:18.358Z,98311.05
2023-11-17T07:32:54.256Z,98311.41
2023-11-17T07:35:29.869Z,98313.15
2023-11-17T07:38:23.468Z,98315.58
2023-11-17T07:40:58.605Z,98316.10
2023-11-17T07:43:40.391Z,98318.70
2023-11-17T07:46:26.398Z,98319.57
2023-11-17T07:49:03.526Z,98321.13
2023-11-17T07:51:49.928Z,98317.83
2023-11-17T07:54:26.486Z,98317.66
2023-11-17T07:57:19.063Z,98315.77
2023-11-17T07:59:57.588Z,98320.61
2023-11-17T08:02:33.252Z,98319.39
2023-11-17T08:05:26.546Z,98319.73
2023-11-17T08:08:19.548Z,98321.12
2023-11-17T08:11:05.854Z,98316.44
2023-11-17T08:13:40.661Z,98314.51
2023-11-17T08:16:22.767Z,98320.05
2023-11-17T08:19:06.828Z,98318.66
2023-11-17T08:21:59.989Z,98319.70
2023-11-17T08:24:37.711Z,98319.84
2023-11-17T08:27:10.195Z,98320.03
2023-11-17T08:30:02.083Z,98320.87
2023-11-17T08:32:45.486Z,98323.46
2023-11-17T08:35:18.634Z,98325.55
2023-11-17T08:38:11.243Z,98324.15
2023-11-17T08:41:07.042Z,98323.09
2023-11-17T08:43:47.236Z,98323.73
2023-11-17T08:46:30.801Z,98327.52
2023-11-17T08:49:10.181Z,98327.81
2023-11-17T08:52:05.119Z,98329.14
2023-11-17T08:54:57.885Z,98325.59
2023-11-17T08:57:31.701Z,98329.72
2023-11-17T09:00:19.369Z,98327.23
2023-11-17T09:03:02.470Z,98330.81
2023-11-17T09:05:35.735Z,98329.00
2023-11-17T09:08:11.806Z,98327.88
2023-11-17T09:10:46.447Z,98324.67
2023-11-17T09:13:42.038Z,98323.54
2023-11-17T09:16:33.975Z,98325.55
2023-11-17T09:19:37.557Z,98319.41
2023-11-17T09:22:10.643Z,98320.06
2023-11-17T09:24:48.716Z,98319.37
2023-11-17T09:27:21.493Z,98320.60
2023-11-17T09:29:56.560Z,98316.40
2023-11-17T09:32:51.108Z,98317.27
2023-11-17T09:35:44.271Z,98314.10
2023-11-17T09:38:36.578Z,98313.98
2023-11-17T09:41:11.050Z,98313.33
2023-11-17T09:44:01.734Z,98312.15
2023-11-17T09:46:55.129Z,98310.91
2023-11-17T09:49:50.434Z,98307.55
2023-11-17T09:52:27.642Z,98308.38
2023-11-17T09:55:29.276Z,98304.98
2023-11-17T09:58:13.904Z,98299.88
2023-11-17T10:00:55.103Z,98300.83
2023-11-17T10:03:43.387Z,98303.81
2023-11-17T10:06:36.070Z,98301.73
2023-11-17T10:09:33.913Z,98296.95
2023-11-17T10:12:08.450Z,98294.06
2023-11-17T10:14:43.162Z,98293.19
2023-11-17T10:17:23.022Z,98290.23
2023-11-17T10:19:59.624Z,98287.44
2023-11-17T10:22:44.387Z,98290.66
2023-11-17T10:25:37.347Z,98289.84
2023-11-17T10:28:16.220Z,98288.49
2023-11-17T10:30:49.108Z,98291.52
2023-11-17T10:33:44.048Z,98286.27
2023-11-17T10:36:21.379Z,98290.83
2023-11-17T10:39:11.771Z,98290.10
2023-11-17T10:41:44.729Z,98283.46
2023-11-17T10:44:43.270Z,98286.82
2023-11-17T10:47:23.261Z,98285.79
2023-11-17T10:50:13.265Z,98289.29
2023-11-17T10:52:49.004Z,98286.31
2023-11-17T10:55:36.494Z,98290.16
2023-11-17T10:58:19.910Z,98292.24
2023-11-17T11:00:57.592Z,98295.22
2023-11-17T11:03:35.447Z,98288.23
2023-11-17T11:06:29.034Z,98291.73
2023-11-17T11:09:25.209Z,98289.44
2023-11-17T11:11:58.977Z,98286.10
2023-11-17T11:14:34.419Z,98282.91
2023-11-17T11:17:27.462Z,98281.45
2023-11-17T11:20:21.346Z,98280.02
2023-11-17T11:23:00.310Z,98281.38
2023-11-17T11:25:53.921Z,98282.30
2023-11-17T11:28:32.226Z,98282.19
2023-11-17T11:31:27.080Z,98289.77
2023-11-17T11:34:04.343Z,98288.75
2023-11-17T11:36:42.846Z,98287.88
2023-11-17T11:39:19.418Z,98288.92
2023-11-17T11:41:56.791Z,98292.86
2023-11-17T11:44:43.817Z,98287.58
2023-11-17T11:47:32.331Z,98289.82
2023-11-17T11:50:09.181Z,98289.88
2023-11-17T11:52:49.480Z,98289.73
2023-11-17T11:55:26.879Z,98290.69
2023-11-17T11:58:07.165Z,98295.31
2023-11-17T12:00:46.226Z,98292.08
2023-11-17T12:03:20.663Z,98292.38
2023-11-17T12:06:27.798Z,98295.09
2023-11-17T12:09:09.324Z,98295.80
2023-11-17T12:11:48.973Z,98296.73
2023-11-17T12:14:27.994Z,98294.45
2023-11-17T12:17:05.669Z,98296.41
2023-11-17T12:19:39.222Z,98296.52
2023-11-17T12:22:15.008Z,98299.42
2023-11-17T12:25:02.320Z,98302.72
2023-11-17T12:27:38.516Z,98300.04
2023-11-17T12:30:16.094Z,98301.35
2023-11-17T12:32:52.819Z,98306.67
2023-11-17T12:35:46.279Z,98308.00
2023-11-17T12:38:32.599Z,98309.31
2023-11-17T12:41:17.697Z,98311.80
2023-11-17T12:44:04.410Z,98309.75
2023-11-17T12:46:58.094Z,98309.05
2023-11-17T12:49:52.873Z,98312.02
2023-11-17T12:52:26.613Z,98312.55
2023-11-17T12:55:19.095Z,98313.06
2023-11-17T12:57:55.043Z,98311.52
2023-11-17T13:00:36.536Z,98309.27
2023-11-17T13:03:18.993Z,98313.99
2023-11-17T13:06:05.387Z,98314.55
2023-11-17T13:08:54.000Z,98318.92
2023-11-17T13:11:33.947Z,98318.23
2023-11-17T13:14:09.844Z,98319.84
2023-11-17T13:17:04.135Z,98321.30
2023-11-17T13:19:57.156Z,98326.05
2023-11-17T13:22:33.214Z,98326.11
2023-11-17T13:25:15.960Z,98333.45
2023-11-17T13:27:51.047Z,98333.48
2023-11-17T13:30:43.866Z,98335.08
2023-11-17T13:33:42.722Z,98335.45
2023-11-17T13:36:37.362Z,98332.54
2023-11-17T13:39:34.772Z,98327.15
2023-11-17T13:42:19.742Z,98331.54
2023-11-17T13:45:04.997Z,98329.30
2023-11-17T13:47:53.631Z,98329.66
2023-11-17T13:51:07.574Z,98334.57
2023-11-17T13:54:04.445Z,98334.23
2023-11-17T13:56:45.458Z,98337.73
2023-11-17T13:59:24.294Z,98337.56
2023-11-17T14:02:11.606Z,98338.98
2023-11-17T14:04:45.508Z,98343.70
2023-11-17T14:07:31.980Z,98348.41
2023-11-17T14:10:12.775Z,98349.82
2023-11-17T14:12:51.070Z,98352.77
2023-11-17T14:15:24.092Z,98350.35
2023-11-17T14:17:57.031Z,98349.50
2023-11-17T14:20:49.958Z,98353.17
2023-11-17T14:23:43.386Z,98351.78
2023-11-17T14:26:36.247Z,98355.45
2023-11-17T14:29:14.091Z,98360.00
2023-11-17T14:31:50.130Z,98365.04
2023-11-17T14:34:30.520Z,98363.65
2023-11-17T14:37:16.574Z,98369.23
2023-11-17T14:39:51.371Z,98370.28
2023-11-17T14:42:35.017Z,98372.52
2023-11-17T14:45:21.769Z,98377.58
2023-11-17T14:48:04.104Z,98383.15
2023-11-17T14:50:48.632Z,98388.88
2023-11-17T14:53:41.786Z,98393.60
2023-11-17T14:56:34.555Z,98397.44
2023-11-17T14:59:19.679Z,98401.09
2023-11-17T15:02:07.662Z,98402.30
2023-11-17T15:04:43.160Z,98400.73
2023-11-17T15:07:35.881Z,98400.41
2023-11-17T15:10:20.551Z,98404.41
2023-11-17T15:12:59.899Z,98409.11
2023-11-17T15:15:45.115Z,98407.72
2023-11-17T15:18:39.691Z,98412.07
2023-11-17T15:21:45.117Z,98411.55
2023-11-17T15:24:38.229Z,98415.03
2023-11-17T15:27:30.813Z,98421.98
2023-11-17T15:30:28.273Z,98423.20
2023-11-17T15:33:41.512Z,98426.32
2023-11-17T15:36:35.433Z,98427.87
2023-11-17T15:39:32.107Z,98436.04
2023-11-17T15:42:24.077Z,98438.16
2023-11-17T15:45:12.964Z,98442.33
2023-11-17T15:48:05.861Z,98447.03
2023-11-17T15:51:05.637Z,98455.02
2023-11-17T15:53:50.885Z,98459.20
2023-11-17T15:56:43.392Z,98464.23
2023-11-17T15:59:28.047Z,98468.92
2023-11-17T16:02:06.811Z,98472.23
2023-11-17T16:04:59.454Z,98484.20
2023-11-17T16:07:32.044Z,98487.65
2023-11-17T16:10:25.847Z,98490.74
2023-11-17T16:13:14.290Z,98497.85
2023-11-17T16:16:09.228Z,98505.64
2023-11-17T16:19:04.010Z,98507.00
2023-11-17T16:21:49.016Z,98508.55
2023-11-17T16:24:24.698Z,98513.73
2023-11-17T16:27:19.294Z,98516.52
2023-11-17T16:30:18.399Z,98521.19
2023-11-17T16:33:01.896Z,98524.45
2023-11-17T16:35:56.660Z,98528.43
2023-11-17T16:38:50.874Z,98532.59
2023-11-17T16:41:26.627Z,98535.88
2023-11-17T16:44:19.247Z,98538.28
2023-11-17T16:47:13.014Z,98541.56
2023-11-17T16:50:07.538Z,98545.73
2023-11-17T16:52:41.380Z,98552.65
2023-11-17T16:55:28.462Z,98558.34
2023-11-17T16:58:21.245Z,98561.61
2023-11-17T17:01:55.465Z,98563.51
2023-11-17T17:04:13.196Z,98569.55
2023-11-17T17:07:08.864Z,98568.65
2023-11-17T17:09:55.947Z,98574.73
2023-11-17T17:12:48.636Z,98578.52
2023-11-17T17:15:42.032Z,98582.17
2023-11-17T17:18:19.420Z,98584.60
2023-11-17T17:20:55.424Z,98586.50
2023-11-17T17:23:51.178Z,98588.23
2023-11-17T17:26:44.999Z,98591.35
2023-11-17T17:29:29.600Z,98590.11
2023-11-17T17:32:05.030Z,98592.38
2023-11-17T17:34:57.569Z,98594.79
2023-11-17T17:38:06.945Z,98602.77
2023-11-17T17:40:49.825Z,98606.73
2023-11-17T17:43:44.741Z,98608.10
2023-11-17T17:46:30.212Z,98608.09
2023-11-17T17:49:23.073Z,98612.60
2023-11-17T17:52:20.217Z,98611.68
2023-11-17T17:55:13.359Z,98613.41
2023-11-17T17:58:00.454Z,98613.40
2023-11-17T18:00:53.944Z,98620.02
2023-11-17T18:03:50.313Z,98622.91
2023-11-17T18:06:44.604Z,98625.99
2023-11-17T18:09:40.005Z,98626.30
2023-11-17T18:12:32.808Z,98628.68
2023-11-17T18:15:29.516Z,98634.36
2023-11-17T18:18:22.296Z,98639.52
2023-11-17T18:21:14.943Z,98646.03
2023-11-17T18:24:09.610Z,98654.97
2023-11-17T18:27:00.610Z,98658.56
2023-11-17T18:29:57.336Z,98657.62
2023-11-17T18:32:52.676Z,98663.47
2023-11-17T18:35:40.293Z,98660.28
2023-11-17T18:38:35.299Z,98663.48
2023-11-17T18:41:22.164Z,98663.78
2023-11-17T18:44:15.027Z,98666.18
2023-11-17T18:47:08.456Z,98672.02
2023-11-17T18:50:22.301Z,98676.66
2023-11-17T18:53:15.840Z,98680.92
2023-11-17T18:56:12.347Z,98683.27
2023-11-17T18:59:07.573Z,98686.35
2023-11-17T19:01:54.775Z,98686.67
2023-11-17T19:04:50.118Z,98684.27
2023-11-17T19:07:44.706Z,98692.59
2023-11-17T19:10:36.559Z,98694.80
2023-11-17T19:13:22.912Z,98693.90
2023-11-17T19:16:14.668Z,98693.68
2023-11-17T19:19:08.893Z,98697.46
2023-11-17T19:22:01.256Z,98704.25
2023-11-17T19:24:57.506Z,98703.92
2023-11-17T19:27:50.242Z,98710.62
2023-11-17T19:30:36.308Z,98714.87
2023-11-17T19:33:24.197Z,98716.58
2023-11-17T19:36:16.903Z,98716.16
2023-11-17T19:39:16.984Z,98720.31
2023-11-17T19:42:13.448Z,98724.98
2023-11-17T19:44:58.657Z,98728.62
2023-11-17T19:47:53.722Z,98730.87
2023-11-17T19:50:37.681Z,98734.52
2023-11-17T19:53:24.924Z,98738.31
2023-11-17T19:56:12.523Z,98742.60
2023-11-17T19:59:05.224Z,98747.22
2023-11-17T20:01:58.088Z,98743.83
2023-11-17T20:04:33.758Z,98747.42
2023-11-17T20:07:20.387Z,98747.78
2023-11-17T20:10:01.696Z,98749.98
2023-11-17T20:12:37.349Z,98752.40
2023-11-17T20:15:32.432Z,98752.95
2023-11-17T20:18:28.077Z,98751.55
2023-11-17T20:21:20.956Z,98751.35
2023-11-17T20:24:14.387Z,98752.54
2023-11-17T20:27:00.411Z,98754.23
2023-11-17T20:29:38.658Z,98758.02
2023-11-17T20:32:33.911Z,98760.58
2023-11-17T20:35:27.242Z,98764.20
2023-11-17T20:38:12.794Z,98764.89
2023-11-17T20:40:48.030Z,98768.16
2023-11-17T20:43:31.731Z,98773.49
2023-11-17T20:46:29.013Z,98778.48
2023-11-17T20:49:21.831Z,98774.25
2023-11-17T20:52:17.317Z,98778.83
2023-11-17T20:55:13.769Z,98782.11
2023-11-17T20:57:57.909Z,98782.96
2023-11-17T21:00:34.923Z,98783.84
2023-11-17T21:03:28.334Z,98784.36
2023-11-17T21:06:23.850Z,98788.13
2023-11-17T21:09:28.789Z,98786.86
2023-11-17T21:12:16.978Z,98788.66
2023-11-17T21:14:51.958Z,98790.94
2023-11-17T21:17:45.652Z,98794.41
2023-11-17T21:20:40.890Z,98798.55
2023-11-17T21:23:26.338Z,98798.23
2023-11-17T21:26:09.581Z,98806.67
2023-11-17T21:29:02.414Z,98803.83
2023-11-17T21:31:56.483Z,98801.83
2023-11-17T21:34:51.002Z,98806.45
2023-11-17T21:38:05.059Z,98809.70
2023-11-17T21:40:38.486Z,98816.25
2023-11-17T21:43:35.276Z,98809.84
2023-11-17T21:46:11.484Z,98815.53
2023-11-17T21:49:04.936Z,98819.48
2023-11-17T21:51:47.313Z,98814.80
2023-11-17T21:54:35.681Z,98823.63
2023-11-17T21:57:28.912Z,98826.92
2023-11-17T22:00:13.820Z,98824.34
2023-11-17T22:03:06.733Z,98830.23
2023-11-17T22:05:53.307Z,98829.91
2023-11-17T22:08:39.190Z,98832.69
2023-11-17T22:11:35.654Z,98836.29
2023-11-17T22:14:29.694Z,98839.35
2023-11-17T22:17:22.503Z,98846.23
2023-11-17T22:20:12.706Z,98843.70
2023-11-17T22:23:06.110Z,98848.86
2023-11-17T22:25:51.464Z,98852.32
2023-11-17T22:28:46.926Z,98856.02
2023-11-17T22:31:39.519Z,98860.42
2023-11-17T22:34:33.987Z,98857.25
2023-11-17T22:37:25.806Z,98858.23
2023-11-17T22:40:19.513Z,98861.66
2023-11-17T22:43:04.228Z,98864.08
2023-11-17T22:45:57.135Z,98864.26
2023-11-17T22:48:52.433Z,98870.31
2023-11-17T22:51:45.704Z,98872.02
2023-11-17T22:54:38.473Z,98865.44
2023-11-17T22:57:30.819Z,98867.52
2023-11-17T23:00:48.981Z,98866.99
2023-11-17T23:03:44.509Z,98866.61
2023-11-17T23:06:41.014Z,98869.67
2023-11-17T23:09:33.900Z,98873.92
2023-11-17T23:12:26.484Z,98883.71
2023-11-17T23:16:22.920Z,98878.86
2023-11-17T23:18:33.992Z,98883.00
2023-11-17T23:21:29.142Z,98885.03
2023-11-17T23:24:21.703Z,98887.95
2023-11-17T23:27:05.512Z,98887.23
2023-11-17T23:29:50.786Z,98886.72
2023-11-17T23:32:37.924Z,98891.56
2023-11-17T23:35:30.731Z,98893.95
2023-11-17T23:38:18.627Z,98889.59
2023-11-17T23:41:11.224Z,98893.05
2023-11-17T23:44:03.730Z,98895.80
2023-11-17T23:46:48.649Z,98896.70
2023-11-17T23:49:42.451Z,98898.51
2023-11-17T23:52:33.686Z,98901.08
2023-11-17T23:55:19.210Z,98905.08
2023-11-17T23:58:11.757Z,98905.06
